createdAt,value
2018-05-29T04:09:58.341Z,78.34
2018-05-29T04:10:23.811Z,78.44
2018-05-29T04:10:49.279Z,78.63
2018-05-29T04:11:14.779Z,78.44
2018-05-29T04:11:40.270Z,78.63
2018-05-29T04:12:05.791Z,78.34
2018-05-29T04:12:31.366Z,78.63
2018-05-29T04:12:56.854Z,78.54
2018-05-29T04:13:22.362Z,78.54
2018-05-29T04:13:47.864Z,78.54
2018-05-29T04:14:13.324Z,78.25
2018-05-29T04:14:38.808Z,78.54
2018-05-29T04:15:04.290Z,78.54
2018-05-29T04:15:29.781Z,78.54
2018-05-29T04:15:55.267Z,78.54
2018-05-29T04:16:20.801Z,78.54
2018-05-29T04:16:46.212Z,78.34
2018-05-29T04:17:11.886Z,78.25
2018-05-29T04:17:37.459Z,78.54
2018-05-29T04:18:02.938Z,78.54
2018-05-29T04:18:28.442Z,78.25
2018-05-29T04:18:53.969Z,78.25
2018-05-29T04:19:19.429Z,78.25
2018-05-29T04:19:45.029Z,78.25
2018-05-29T04:20:10.514Z,78.54
2018-05-29T04:20:35.995Z,78.44
2018-05-29T04:21:01.497Z,78.34
2018-05-29T04:21:27.010Z,78.34
2018-05-29T04:21:52.415Z,78.34
2018-05-29T04:22:18.061Z,77.86
2018-05-29T04:22:43.559Z,78.06
2018-05-29T04:23:09.073Z,78.15
2018-05-29T04:23:34.637Z,78.15
2018-05-29T04:24:00.131Z,77.76
2018-05-29T04:24:25.620Z,77.67
2018-05-29T04:24:51.272Z,78.15
2018-05-29T04:25:16.910Z,78.34
2018-05-29T04:25:42.436Z,78.06
2018-05-29T04:26:08.004Z,78.06
2018-05-29T04:26:33.736Z,77.86
2018-05-29T04:26:59.210Z,77.67
2018-05-29T04:27:24.747Z,77.76
2018-05-29T04:27:50.253Z,77.86
2018-05-29T04:28:15.699Z,77.96
2018-05-29T04:28:41.216Z,77.86
2018-05-29T04:29:06.720Z,78.06
2018-05-29T04:29:32.193Z,78.25
2018-05-29T04:29:57.681Z,77.86
2018-05-29T04:30:23.191Z,78.06
2018-05-29T04:30:48.676Z,77.96
2018-05-29T04:31:14.168Z,78.34
2018-05-29T04:31:39.664Z,77.9
2018-05-29T04:32:05.183Z,78.06
2018-05-29T04:33:08.808Z,78
2018-05-29T04:33:34.388Z,77.81
2018-05-29T04:33:59.877Z,77.71
2018-05-29T04:34:25.538Z,78
2018-05-29T04:34:51.047Z,77.9
2018-05-29T04:35:16.540Z,77.13
2018-05-29T04:35:42.013Z,77.13
2018-05-29T04:36:07.541Z,76.59
2018-05-29T04:36:33.014Z,76.84
2018-05-29T04:36:58.502Z,76.84
2018-05-29T04:37:23.964Z,76.4
2018-05-29T04:37:49.486Z,76.88
2018-05-29T04:38:14.977Z,76.01
2018-05-29T04:39:23.701Z,76.01
2018-05-29T04:39:49.199Z,75.76
2018-05-29T04:40:14.707Z,75.57
2018-05-29T04:40:40.218Z,75.53
2018-05-29T04:41:05.730Z,75.62
2018-05-29T04:41:31.240Z,75.37
2018-05-29T04:41:56.848Z,75.85
2018-05-29T04:42:22.345Z,75.37
2018-05-29T04:42:47.829Z,75.18
2018-05-29T04:43:13.322Z,75.18
2018-05-29T04:43:38.780Z,75.18
2018-05-29T04:44:04.226Z,74.99
2018-05-29T04:44:29.757Z,74.99
2018-05-29T04:45:29.243Z,74.79
2018-05-29T04:45:54.702Z,74.41
2018-05-29T04:46:20.163Z,74.25
2018-05-29T04:46:45.739Z,74.35
2018-05-29T04:47:11.310Z,74.73
2018-05-29T04:47:36.797Z,74.25
2018-05-29T04:48:02.228Z,73.96
2018-05-29T04:48:27.714Z,74.06
2018-05-29T04:48:53.190Z,73.96
2018-05-29T04:49:18.693Z,73.86
2018-05-29T04:49:44.413Z,73.58
2018-05-29T04:50:09.867Z,73.28
2018-05-29T04:50:35.302Z,73.28
2018-05-29T04:51:00.754Z,73.09
2018-05-29T04:51:26.520Z,72.9
2018-05-29T04:51:52.023Z,73
2018-05-29T04:52:17.521Z,73.09
2018-05-29T04:52:42.977Z,73.09
2018-05-29T04:53:08.421Z,73.09
2018-05-29T04:53:34.037Z,73.32
2018-05-29T04:53:59.621Z,72.94
2018-05-29T04:54:25.008Z,72.74
2018-05-29T04:54:50.507Z,72.74
2018-05-29T04:55:15.981Z,72.84
2018-05-29T04:55:41.600Z,72.55
2018-05-29T04:56:07.224Z,72.16
2018-05-29T04:56:32.695Z,72.94
2018-05-29T04:56:58.079Z,72.36
2018-05-29T04:57:23.559Z,72.36
2018-05-29T04:57:48.989Z,72.45
2018-05-29T04:58:14.467Z,72.45
2018-05-29T04:58:39.953Z,72.26
2018-05-29T04:59:05.397Z,71.97
2018-05-29T04:59:30.862Z,72.16
2018-05-29T04:59:56.339Z,71.97
2018-05-29T05:00:54.864Z,72.06
2018-05-29T05:01:20.382Z,71.68
2018-05-29T05:01:45.864Z,71.58
2018-05-29T05:02:11.343Z,71.88
2018-05-29T05:02:36.827Z,71.88
2018-05-29T05:03:02.284Z,71.48
2018-05-29T05:03:28.008Z,71.81
2018-05-29T05:03:53.460Z,71.33
2018-05-29T05:04:18.964Z,71.33
2018-05-29T05:04:44.446Z,71.04
2018-05-29T05:05:10.113Z,70.94
2018-05-29T05:05:35.554Z,71.23
2018-05-29T05:06:39.166Z,71.2
2018-05-29T05:07:04.662Z,71.3
2018-05-29T05:07:30.172Z,71.2
2018-05-29T05:07:55.617Z,71.1
2018-05-29T05:08:21.082Z,71
2018-05-29T05:09:20.604Z,71.14
2018-05-29T05:09:46.098Z,70.75
2018-05-29T05:10:11.595Z,70.32
2018-05-29T05:10:37.147Z,70.65
2018-05-29T05:11:02.703Z,71.04
2018-05-29T05:11:28.428Z,71
2018-05-29T05:11:53.953Z,70.32
2018-05-29T05:12:19.545Z,70.52
2018-05-29T05:12:45.025Z,71.1
2018-05-29T05:13:10.585Z,70.81
2018-05-29T05:13:36.162Z,71
2018-05-29T05:14:01.588Z,70.72
2018-05-29T05:14:27.082Z,70.81
2018-05-29T05:14:52.549Z,71.3
2018-05-29T05:15:17.967Z,71
2018-05-29T05:15:43.464Z,71
2018-05-29T05:16:08.915Z,71.33
2018-05-29T05:16:34.408Z,71.04
2018-05-29T05:16:59.867Z,71.23
2018-05-29T05:17:25.470Z,71.42
2018-05-29T05:17:51.080Z,70.75
2018-05-29T05:18:16.570Z,70.94
2018-05-29T05:18:42.154Z,70.84
2018-05-29T05:19:07.497Z,70.65
2018-05-29T05:19:32.968Z,70.26
2018-05-29T05:19:58.449Z,70.26
2018-05-29T05:20:23.937Z,70.07
2018-05-29T05:20:49.433Z,70.17
2018-05-29T05:21:14.880Z,69.59
2018-05-29T05:21:40.421Z,69.98
2018-05-29T05:22:05.941Z,69.88
2018-05-29T05:22:31.398Z,69.78
2018-05-29T05:22:56.908Z,70.36
2018-05-29T05:23:22.354Z,69.98
2018-05-29T05:23:47.840Z,69.98
2018-05-29T05:24:13.334Z,69.68
2018-05-29T05:24:38.785Z,70.07
2018-05-29T05:25:04.280Z,70.17
2018-05-29T05:25:29.727Z,70.1
2018-05-29T05:25:55.241Z,70.01
2018-05-29T05:26:20.706Z,70.1
2018-05-29T05:26:46.387Z,69.92
2018-05-29T05:27:12.125Z,69.92
2018-05-29T05:27:37.619Z,69.82
2018-05-29T05:28:03.162Z,69.82
2018-05-29T05:28:28.743Z,70.2
2018-05-29T05:28:54.223Z,69.92
2018-05-29T05:29:19.692Z,70.01
2018-05-29T05:29:45.151Z,69.82
2018-05-29T05:30:10.722Z,69.72
2018-05-29T05:30:36.456Z,69.92
2018-05-29T05:31:02.209Z,69.75
2018-05-29T05:31:27.643Z,69.56
2018-05-29T05:31:53.145Z,69.33
2018-05-29T05:32:18.751Z,69.27
2018-05-29T05:32:44.254Z,69.17
2018-05-29T05:33:09.884Z,68.98
2018-05-29T05:33:35.276Z,68.79
2018-05-29T05:34:00.762Z,68.98
2018-05-29T05:34:26.233Z,68.69
2018-05-29T05:34:51.740Z,68.98
2018-05-29T05:35:17.344Z,69.17
2018-05-29T05:35:42.865Z,68.79
2018-05-29T05:36:08.341Z,68.79
2018-05-29T05:36:33.792Z,69.17
2018-05-29T05:36:59.271Z,68.91
2018-05-29T05:37:24.739Z,67.91
2018-05-29T05:37:50.222Z,67.66
2018-05-29T05:38:15.724Z,67.85
2018-05-29T05:38:41.149Z,67.66
2018-05-29T05:39:06.640Z,67.46
2018-05-29T05:39:32.151Z,67.85
2018-05-29T05:39:57.650Z,67.85
2018-05-29T05:40:23.175Z,67.37
2018-05-29T05:40:48.621Z,67.37
2018-05-29T05:41:14.067Z,67.08
2018-05-29T05:41:39.508Z,66.98
2018-05-29T05:42:04.961Z,67.08
2018-05-29T05:42:30.435Z,67.18
2018-05-29T05:42:55.926Z,66.88
2018-05-29T05:43:21.382Z,66.92
2018-05-29T05:43:46.917Z,66.4
2018-05-29T05:44:12.370Z,66.11
2018-05-29T05:44:37.809Z,66.02
2018-05-29T05:45:03.320Z,65.72
2018-05-29T05:45:29.018Z,66.2
2018-05-29T05:45:54.471Z,66.11
2018-05-29T05:46:19.999Z,66.3
2018-05-29T05:46:45.550Z,66.02
2018-05-29T05:47:11.201Z,66.02
2018-05-29T05:47:36.749Z,66.11
2018-05-29T05:48:02.263Z,66.02
2018-05-29T05:49:00.765Z,66.6
2018-05-29T05:49:26.244Z,66.11
2018-05-29T05:49:51.779Z,66.4
2018-05-29T05:50:17.350Z,66.3
2018-05-29T05:50:43.079Z,66.5
2018-05-29T05:51:08.558Z,67.08
2018-05-29T05:51:34.096Z,67.11
2018-05-29T05:51:59.535Z,66.24
2018-05-29T05:52:24.993Z,66.34
2018-05-29T05:52:50.517Z,66.05
2018-05-29T05:53:15.939Z,66.24
2018-05-29T05:53:41.455Z,66.05
2018-05-29T05:54:06.943Z,65.85
2018-05-29T05:54:32.401Z,65.95
2018-05-29T05:54:57.893Z,65.95
2018-05-29T05:55:23.464Z,65.66
2018-05-29T05:55:48.895Z,65.37
2018-05-29T05:56:14.393Z,65.56
2018-05-29T05:56:39.873Z,65.56
2018-05-29T05:57:05.409Z,65.89
2018-05-29T05:57:30.864Z,64.72
2018-05-29T05:57:56.397Z,64.43
2018-05-29T05:58:21.946Z,64.92
2018-05-29T05:58:47.477Z,64.53
2018-05-29T05:59:12.980Z,64.72
2018-05-29T05:59:38.487Z,64.92
2018-05-29T06:00:04.298Z,64.72
2018-05-29T06:00:29.831Z,64.82
2018-05-29T06:00:55.241Z,64.53
2018-05-29T06:01:20.782Z,64.92
2018-05-29T06:01:46.299Z,64.62
2018-05-29T06:02:11.767Z,64.62
2018-05-29T06:02:37.220Z,64.82
2018-05-29T06:03:02.711Z,64.27
2018-05-29T06:03:28.180Z,64.53
2018-05-29T06:03:53.648Z,64.47
2018-05-29T06:04:19.103Z,64.27
2018-05-29T06:04:44.608Z,64.07
2018-05-29T06:05:10.211Z,63.49
2018-05-29T06:05:35.593Z,63.59
2018-05-29T06:06:01.100Z,63.78
2018-05-29T06:06:26.589Z,63.98
2018-05-29T06:06:52.111Z,64.17
2018-05-29T06:07:17.574Z,64.07
2018-05-29T06:07:43.028Z,63.98
2018-05-29T06:08:08.503Z,63.49
2018-05-29T06:08:33.979Z,63.88
2018-05-29T06:08:59.428Z,63.4
2018-05-29T06:09:24.896Z,63.23
2018-05-29T06:09:50.354Z,62.85
2018-05-29T06:10:15.827Z,62.85
2018-05-29T06:10:41.367Z,62.55
2018-05-29T06:11:07.025Z,61.88
2018-05-29T06:11:32.437Z,62.26
2018-05-29T06:11:57.933Z,62.36
2018-05-29T06:12:23.361Z,61.88
2018-05-29T06:12:48.899Z,61.58
2018-05-29T06:13:14.352Z,61.88
2018-05-29T06:13:39.845Z,61.98
2018-05-29T06:14:05.295Z,61.49
2018-05-29T06:14:30.866Z,61.98
2018-05-29T06:14:56.333Z,61.58
2018-05-29T06:15:21.845Z,62.07
2018-05-29T06:15:47.402Z,61.68
2018-05-29T06:16:13.196Z,61.49
2018-05-29T06:16:38.704Z,62.16
2018-05-29T06:17:04.258Z,62.26
2018-05-29T06:17:29.639Z,62.46
2018-05-29T06:17:55.148Z,62.07
2018-05-29T06:18:20.708Z,61.68
2018-05-29T06:18:46.118Z,61.49
2018-05-29T06:19:11.615Z,62.07
2018-05-29T06:19:37.086Z,61.98
2018-05-29T06:20:02.550Z,62.39
2018-05-29T06:20:27.981Z,62.68
2018-05-29T06:20:53.446Z,61.88
2018-05-29T06:21:18.994Z,61.22
2018-05-29T06:21:44.422Z,61.42
2018-05-29T06:22:09.869Z,61.52
2018-05-29T06:22:35.332Z,61.42
2018-05-29T06:23:00.831Z,60.64
2018-05-29T06:23:26.287Z,60.74
2018-05-29T06:23:51.923Z,61.04
2018-05-29T06:24:17.442Z,60.55
2018-05-29T06:24:42.840Z,60.06
2018-05-29T06:25:08.293Z,59.87
2018-05-29T06:25:33.788Z,60.09
2018-05-29T06:25:59.257Z,60.19
2018-05-29T06:26:24.728Z,60.28
2018-05-29T06:26:50.257Z,60.09
2018-05-29T06:27:15.761Z,60.19
2018-05-29T06:27:41.195Z,60.09
2018-05-29T06:28:06.702Z,60.58
2018-05-29T06:28:32.153Z,60.09
2018-05-29T06:28:57.613Z,59.7
2018-05-29T06:29:23.096Z,59.7
2018-05-29T06:29:48.647Z,59.61
2018-05-29T06:30:14.102Z,59.9
2018-05-29T06:30:39.604Z,59.7
2018-05-29T06:31:05.067Z,59.34
2018-05-29T06:31:30.888Z,58.95
2018-05-29T06:31:56.382Z,59.05
2018-05-29T06:32:21.872Z,58.95
2018-05-29T06:32:47.350Z,58.76
2018-05-29T06:33:12.856Z,58.95
2018-05-29T06:33:38.263Z,58.95
2018-05-29T06:34:03.752Z,58.28
2018-05-29T06:34:29.294Z,58.28
2018-05-29T06:34:54.843Z,58.31
2018-05-29T06:35:20.358Z,58.11
2018-05-29T06:35:45.905Z,57.53
2018-05-29T06:36:11.313Z,57.53
2018-05-29T06:36:36.767Z,57.72
2018-05-29T06:37:02.220Z,57.14
2018-05-29T06:37:27.700Z,57.5
2018-05-29T06:37:53.197Z,57.53
2018-05-29T06:38:18.945Z,57.14
2018-05-29T06:38:44.355Z,57.23
2018-05-29T06:39:09.825Z,56.75
2018-05-29T06:39:35.295Z,56.46
2018-05-29T06:40:00.868Z,56.85
2018-05-29T06:40:26.405Z,56.75
2018-05-29T06:40:51.820Z,57.62
2018-05-29T06:41:17.339Z,57.04
2018-05-29T06:41:42.850Z,56.85
2018-05-29T06:42:08.271Z,57.23
2018-05-29T06:42:33.732Z,57.23
2018-05-29T06:42:59.215Z,56.26
2018-05-29T06:43:24.699Z,55.88
2018-05-29T06:43:50.157Z,55.88
2018-05-29T06:44:15.609Z,55.78
2018-05-29T06:44:41.095Z,56.16
2018-05-29T06:45:06.693Z,56.62
2018-05-29T06:45:32.121Z,56.65
2018-05-29T06:45:57.545Z,56.46
2018-05-29T06:46:23.075Z,56.52
2018-05-29T06:46:48.508Z,56.62
2018-05-29T06:47:13.975Z,57.31
2018-05-29T06:47:39.448Z,57.31
2018-05-29T06:48:04.941Z,57.21
2018-05-29T06:48:30.443Z,57.31
2018-05-29T06:48:55.852Z,56.82
2018-05-29T06:49:21.345Z,57.11
2018-05-29T06:49:46.892Z,56.95
2018-05-29T06:50:12.336Z,57.23
2018-05-29T06:50:37.837Z,57.33
2018-05-29T06:51:03.407Z,56.95
2018-05-29T06:51:28.968Z,57.33
2018-05-29T06:51:54.501Z,57.04
2018-05-29T06:52:19.947Z,57.14
2018-05-29T06:52:45.432Z,57.62
2018-05-29T06:53:11.176Z,57.33
2018-05-29T06:53:36.875Z,56.49
2018-05-29T06:54:02.365Z,57.36
2018-05-29T06:54:28.029Z,57.26
2018-05-29T06:54:53.598Z,56.68
2018-05-29T06:55:19.130Z,56.77
2018-05-29T06:55:44.624Z,56.68
2018-05-29T06:56:10.072Z,56.49
2018-05-29T06:56:35.641Z,56.29
2018-05-29T06:57:01.067Z,55.41
2018-05-29T06:57:26.618Z,55.9
2018-05-29T06:57:52.134Z,56.1
2018-05-29T06:58:17.560Z,55.51
2018-05-29T06:58:43.079Z,56
2018-05-29T06:59:08.508Z,55.61
2018-05-29T06:59:33.955Z,56.29
2018-05-29T06:59:59.454Z,56.2
2018-05-29T07:00:24.915Z,55.8
2018-05-29T07:00:50.371Z,56.2
2018-05-29T07:01:15.835Z,56.2
2018-05-29T07:01:41.310Z,56.49
2018-05-29T07:02:06.826Z,56.2
2018-05-29T07:02:32.319Z,56.2
2018-05-29T07:02:57.777Z,56
2018-05-29T07:03:23.365Z,55.9
2018-05-29T07:03:48.793Z,56
2018-05-29T07:04:14.295Z,55.9
2018-05-29T07:04:39.831Z,55.32
2018-05-29T07:05:05.238Z,55.51
2018-05-29T07:05:30.776Z,55.64
2018-05-29T07:05:56.172Z,55.13
2018-05-29T07:06:21.689Z,55.32
2018-05-29T07:06:47.134Z,55.25
2018-05-29T07:07:12.591Z,55.54
2018-05-29T07:07:38.063Z,55.44
2018-05-29T07:08:03.516Z,55.64
2018-05-29T07:08:29.021Z,55.64
2018-05-29T07:08:54.505Z,55.64
2018-05-29T07:09:19.971Z,55.35
2018-05-29T07:09:45.499Z,55.35
2018-05-29T07:10:10.986Z,55.44
2018-05-29T07:10:36.519Z,55.83
2018-05-29T07:11:01.954Z,55.37
2018-05-29T07:11:27.583Z,55.57
2018-05-29T07:11:53.084Z,55.27
2018-05-29T07:12:18.574Z,54.79
2018-05-29T07:12:44.192Z,54.21
2018-05-29T07:13:09.831Z,54.01
2018-05-29T07:13:35.351Z,53.72
2018-05-29T07:14:00.896Z,54.21
2018-05-29T07:14:26.379Z,53.52
2018-05-29T07:14:51.844Z,53.62
2018-05-29T07:15:17.303Z,53.23
2018-05-29T07:15:42.801Z,53.52
2018-05-29T07:16:08.325Z,53.33
2018-05-29T07:16:33.799Z,53.33
2018-05-29T07:16:59.369Z,53.33
2018-05-29T07:17:24.863Z,53.52
2018-05-29T07:17:50.393Z,53.91
2018-05-29T07:18:15.877Z,54.4
2018-05-29T07:18:41.345Z,53.81
2018-05-29T07:19:06.822Z,54.69
2018-05-29T07:19:32.355Z,53.91
2018-05-29T07:19:57.875Z,54.21
2018-05-29T07:20:23.334Z,53.62
2018-05-29T07:20:48.817Z,54.13
2018-05-29T07:21:14.332Z,53.55
2018-05-29T07:21:39.751Z,52.87
2018-05-29T07:22:05.241Z,52.87
2018-05-29T07:22:30.723Z,52.87
2018-05-29T07:22:56.151Z,53.16
2018-05-29T07:23:21.643Z,52.97
2018-05-29T07:23:47.182Z,53.16
2018-05-29T07:24:12.571Z,53.26
2018-05-29T07:24:38.067Z,53.36
2018-05-29T07:25:03.538Z,53.06
2018-05-29T07:25:28.994Z,52.19
2018-05-29T07:25:54.482Z,51.82
2018-05-29T07:26:19.930Z,51.7
2018-05-29T07:26:45.392Z,51.9
2018-05-29T07:27:10.888Z,51.7
2018-05-29T07:27:36.304Z,52.19
2018-05-29T07:28:01.781Z,51.99
2018-05-29T07:28:27.198Z,51.8
2018-05-29T07:28:52.687Z,52.16
2018-05-29T07:29:18.164Z,52.16
2018-05-29T07:29:43.649Z,52.75
2018-05-29T07:30:09.113Z,52.36
2018-05-29T07:30:34.553Z,52.94
2018-05-29T07:31:00.077Z,52.84
2018-05-29T07:31:25.596Z,52.84
2018-05-29T07:31:51.103Z,53.62
2018-05-29T07:32:16.598Z,53.42
2018-05-29T07:32:42.086Z,53.33
2018-05-29T07:33:07.623Z,53.52
2018-05-29T07:33:33.068Z,53.52
2018-05-29T07:33:58.649Z,53.42
2018-05-29T07:34:24.177Z,53.36
2018-05-29T07:34:49.638Z,53.45
2018-05-29T07:35:15.082Z,53.36
2018-05-29T07:35:40.578Z,53.45
2018-05-29T07:36:06.046Z,53.16
2018-05-29T07:36:31.534Z,53.26
2018-05-29T07:36:56.978Z,53.45
2018-05-29T07:37:22.537Z,53.85
2018-05-29T07:37:47.989Z,53.65
2018-05-29T07:38:13.447Z,53.77
2018-05-29T07:38:38.928Z,53.38
2018-05-29T07:39:04.467Z,53.77
2018-05-29T07:39:30.036Z,53.67
2018-05-29T07:39:55.491Z,53.38
2018-05-29T07:40:20.985Z,53.38
2018-05-29T07:40:46.442Z,52.34
2018-05-29T07:41:11.936Z,52.83
2018-05-29T07:41:37.438Z,52.73
2018-05-29T07:42:02.857Z,52.92
2018-05-29T07:42:28.370Z,51.95
2018-05-29T07:42:53.853Z,51.95
2018-05-29T07:43:19.310Z,51.56
2018-05-29T07:43:44.813Z,51.56
2018-05-29T07:44:10.310Z,51.85
2018-05-29T07:44:35.741Z,51.65
2018-05-29T07:45:01.229Z,51.56
2018-05-29T07:45:26.700Z,51.43
2018-05-29T07:45:52.197Z,51.95
2018-05-29T07:46:17.686Z,51.43
2018-05-29T07:46:43.101Z,51.24
2018-05-29T07:47:08.623Z,51.24
2018-05-29T07:47:34.088Z,51.24
2018-05-29T07:47:59.586Z,51.63
2018-05-29T07:48:25.109Z,51.36
2018-05-29T07:48:50.626Z,51.36
2018-05-29T07:49:16.036Z,51.17
2018-05-29T07:49:41.482Z,51.56
2018-05-29T07:50:06.964Z,51.36
2018-05-29T07:50:32.466Z,51.14
2018-05-29T07:50:57.932Z,51.56
2018-05-29T07:51:23.447Z,51.46
2018-05-29T07:51:48.891Z,51.36
2018-05-29T07:52:14.390Z,51.56
2018-05-29T07:52:39.856Z,50.78
2018-05-29T07:53:05.335Z,51.26
2018-05-29T07:53:30.789Z,51.36
2018-05-29T07:53:56.274Z,50.68
2018-05-29T07:54:21.801Z,50.48
2018-05-29T07:54:47.233Z,50.48
2018-05-29T07:55:12.678Z,49.99
2018-05-29T07:55:38.164Z,50.09
2018-05-29T07:56:03.651Z,49.99
2018-05-29T07:56:29.183Z,49.9
2018-05-29T07:56:54.991Z,50.19
2018-05-29T07:57:20.410Z,49.8
2018-05-29T07:57:45.927Z,50.58
2018-05-29T07:58:12.093Z,50.48
2018-05-29T07:58:37.462Z,49.71
2018-05-29T07:59:02.937Z,49.8
2018-05-29T07:59:28.441Z,49.99
2018-05-29T07:59:53.935Z,49.9
2018-05-29T08:00:19.369Z,50.09
2018-05-29T08:00:44.857Z,50.09
2018-05-29T08:01:10.435Z,50.09
2018-05-29T08:01:35.955Z,49.93
2018-05-29T08:02:01.405Z,49.99
2018-05-29T08:02:26.852Z,49.8
2018-05-29T08:02:52.346Z,49.83
2018-05-29T08:03:17.863Z,50.6
2018-05-29T08:03:43.349Z,50.12
2018-05-29T08:04:08.817Z,50.12
2018-05-29T08:04:34.413Z,49.83
2018-05-29T08:04:59.779Z,50.12
2018-05-29T08:05:25.345Z,50.51
2018-05-29T08:05:52.102Z,49.83
2018-05-29T08:06:17.613Z,49.54
2018-05-29T08:06:43.122Z,49.24
2018-05-29T08:07:08.566Z,48.95
2018-05-29T08:07:34.130Z,49.05
2018-05-29T08:07:59.771Z,48.66
2018-05-29T08:08:25.217Z,48.75
2018-05-29T08:08:50.659Z,49.73
2018-05-29T08:09:16.162Z,49.34
2018-05-29T08:09:41.633Z,49.15
2018-05-29T08:10:07.091Z,49.24
2018-05-29T08:10:32.637Z,49.73
2018-05-29T08:10:58.070Z,49.93
2018-05-29T08:11:23.578Z,49.34
2018-05-29T08:11:49.138Z,49.24
2018-05-29T08:12:14.616Z,49.83
2018-05-29T08:12:40.054Z,49.15
2018-05-29T08:13:05.523Z,49.73
2018-05-29T08:13:31.028Z,49.93
2018-05-29T08:13:56.474Z,49.93
2018-05-29T08:14:21.977Z,50.12
2018-05-29T08:14:47.422Z,50.12
2018-05-29T08:15:12.948Z,50.02
2018-05-29T08:15:38.414Z,50.68
2018-05-29T08:16:03.865Z,50.51
2018-05-29T08:16:29.310Z,50.41
2018-05-29T08:16:54.850Z,49.93
2018-05-29T08:17:20.262Z,49.54
2018-05-29T08:17:45.793Z,49.73
2018-05-29T08:18:11.267Z,50.02
2018-05-29T08:18:36.840Z,49.83
2018-05-29T08:19:02.204Z,50.12
2018-05-29T08:19:27.697Z,50.02
2018-05-29T08:19:53.193Z,50.04
2018-05-29T08:20:18.658Z,49.85
2018-05-29T08:20:44.127Z,49.95
2018-05-29T08:21:09.590Z,50.14
2018-05-29T08:21:35.094Z,50.43
2018-05-29T08:22:00.533Z,50.43
2018-05-29T08:22:26.030Z,50.43
2018-05-29T08:22:51.542Z,50.82
2018-05-29T08:23:16.960Z,50.26
2018-05-29T08:23:42.503Z,50.36
2018-05-29T08:24:07.969Z,50.07
2018-05-29T08:24:33.437Z,50.16
2018-05-29T08:24:58.873Z,49.68
2018-05-29T08:25:24.390Z,49.19
2018-05-29T08:25:49.905Z,49.78
2018-05-29T08:26:15.335Z,49.22
2018-05-29T08:26:40.932Z,48.83
2018-05-29T08:27:06.443Z,48.93
2018-05-29T08:27:31.930Z,49.32
2018-05-29T08:27:57.437Z,49.71
2018-05-29T08:28:22.881Z,49.71
2018-05-29T08:28:48.315Z,49.9
2018-05-29T08:29:13.804Z,49.02
2018-05-29T08:29:39.319Z,48.83
2018-05-29T08:30:04.792Z,48.73
2018-05-29T08:30:30.322Z,48.73
2018-05-29T08:30:55.732Z,49.12
2018-05-29T08:31:21.199Z,48.83
2018-05-29T08:31:46.681Z,48.93
2018-05-29T08:32:12.144Z,48.54
2018-05-29T08:32:37.820Z,48.73
2018-05-29T08:33:03.328Z,48.93
2018-05-29T08:33:28.778Z,47.66
2018-05-29T08:33:54.224Z,47.75
2018-05-29T08:34:19.773Z,48.93
2018-05-29T08:34:45.188Z,48.63
2018-05-29T08:35:10.751Z,48.24
2018-05-29T08:35:36.247Z,48.83
2018-05-29T08:36:01.711Z,48.34
2018-05-29T08:36:27.186Z,47.75
2018-05-29T08:36:52.867Z,48.14
2018-05-29T08:37:18.461Z,48.63
2018-05-29T08:37:43.940Z,48.71
2018-05-29T08:38:09.401Z,49.02
2018-05-29T08:38:34.884Z,49.02
2018-05-29T08:39:00.339Z,49.22
2018-05-29T08:39:25.908Z,49.1
2018-05-29T08:39:51.329Z,49.61
2018-05-29T08:40:16.928Z,49.22
2018-05-29T08:40:42.388Z,48.93
2018-05-29T08:41:07.849Z,48.93
2018-05-29T08:41:33.442Z,48.83
2018-05-29T08:41:58.923Z,48.14
2018-05-29T08:42:24.381Z,47.85
2018-05-29T08:42:49.907Z,48.05
2018-05-29T08:43:15.351Z,48.83
2018-05-29T08:43:40.851Z,48.63
2018-05-29T08:44:06.348Z,48.8
2018-05-29T08:44:31.804Z,48.83
2018-05-29T08:44:57.276Z,48.8
2018-05-29T08:45:22.820Z,49
2018-05-29T08:45:48.317Z,49.41
2018-05-29T08:46:13.718Z,48.83
2018-05-29T08:46:39.179Z,48.83
2018-05-29T08:47:04.678Z,48.41
2018-05-29T08:47:30.153Z,48.54
2018-05-29T08:47:55.646Z,48.54
2018-05-29T08:48:21.200Z,49.02
2018-05-29T08:48:46.714Z,48.73
2018-05-29T08:49:12.139Z,48.63
2018-05-29T08:49:37.647Z,49.02
2018-05-29T08:50:03.136Z,48.73
2018-05-29T08:50:28.602Z,48.71
2018-05-29T08:50:54.047Z,48.61
2018-05-29T08:51:19.521Z,48.63
2018-05-29T08:51:45.068Z,49.02
2018-05-29T08:52:10.468Z,48.73
2018-05-29T08:52:35.929Z,48.73
2018-05-29T08:53:01.430Z,49.02
2018-05-29T08:53:26.908Z,48.63
2018-05-29T08:53:52.361Z,49.22
2018-05-29T08:54:17.771Z,49.02
2018-05-29T08:54:43.292Z,48.44
2018-05-29T08:55:08.756Z,48.07
2018-05-29T08:55:34.241Z,47.97
2018-05-29T08:55:59.685Z,48.07
2018-05-29T08:56:25.187Z,47.77
2018-05-29T08:56:50.694Z,48.36
2018-05-29T08:57:16.137Z,48.26
2018-05-29T08:57:41.540Z,47.77
2018-05-29T08:58:07.023Z,47.28
2018-05-29T08:58:32.576Z,46.78
2018-05-29T08:58:58.015Z,47.27
2018-05-29T08:59:23.476Z,47.56
2018-05-29T08:59:48.953Z,47.27
2018-05-29T09:00:14.418Z,47.56
2018-05-29T09:00:39.944Z,47.85
2018-05-29T09:01:05.361Z,47.75
2018-05-29T09:01:30.853Z,47.66
2018-05-29T09:01:56.392Z,47.95
2018-05-29T09:02:21.857Z,48.63
2018-05-29T09:02:47.343Z,48.93
2018-05-29T09:03:12.857Z,49.02
2018-05-29T09:03:38.382Z,48.83
2018-05-29T09:04:03.913Z,48.75
2018-05-29T09:04:29.347Z,48.85
2018-05-29T09:04:54.845Z,48.07
2018-05-29T09:05:20.308Z,47.77
2018-05-29T09:05:45.794Z,48.16
2018-05-29T09:06:11.243Z,48.48
2018-05-29T09:06:36.798Z,48.09
2018-05-29T09:07:02.294Z,47.7
2018-05-29T09:07:27.776Z,47.21
2018-05-29T09:07:53.222Z,47.7
2018-05-29T09:08:18.691Z,46.53
2018-05-29T09:08:44.189Z,46.43
2018-05-29T09:09:09.688Z,46.53
2018-05-29T09:09:35.186Z,45.53
2018-05-29T09:10:00.728Z,45.53
2018-05-29T09:10:26.186Z,45.33
2018-05-29T09:10:51.637Z,45.04
2018-05-29T09:11:17.148Z,45.43
2018-05-29T09:11:42.585Z,45.82
2018-05-29T09:12:08.090Z,45.41
2018-05-29T09:12:33.560Z,46.09
2018-05-29T09:12:59.024Z,46
2018-05-29T09:13:24.495Z,45.8
2018-05-29T09:13:49.991Z,46.29
2018-05-29T09:14:15.477Z,46.58
2018-05-29T09:14:41.118Z,46.19
2018-05-29T09:15:06.589Z,46.48
2018-05-29T09:15:32.117Z,46.09
2018-05-29T09:15:57.554Z,44.43
2018-05-29T09:16:23.020Z,44.04
2018-05-29T09:16:48.467Z,44.14
2018-05-29T09:17:13.941Z,44.63
2018-05-29T09:17:39.455Z,45.21
2018-05-29T09:18:04.940Z,45.51
2018-05-29T09:18:30.447Z,45.12
2018-05-29T09:18:55.914Z,44.04
2018-05-29T09:19:21.358Z,44.04
2018-05-29T09:19:46.848Z,43.95
2018-05-29T09:20:12.347Z,44.14
2018-05-29T09:20:37.796Z,44.53
2018-05-29T09:21:03.305Z,45.31
2018-05-29T09:21:28.741Z,45.12
2018-05-29T09:21:54.197Z,45.31
2018-05-29T09:22:19.740Z,45.8
2018-05-29T09:22:45.196Z,45.8
2018-05-29T09:23:10.669Z,45.8
2018-05-29T09:23:36.123Z,45.31
2018-05-29T09:24:01.617Z,44.82
2018-05-29T09:24:27.091Z,45.12
2018-05-29T09:24:52.584Z,45.41
2018-05-29T09:25:18.043Z,44.92
2018-05-29T09:25:43.577Z,45.43
2018-05-29T09:26:09.021Z,45.43
2018-05-29T09:26:34.509Z,45.14
2018-05-29T09:27:00.049Z,45.23
2018-05-29T09:27:25.485Z,44.84
2018-05-29T09:27:50.939Z,44.26
2018-05-29T09:28:16.448Z,44.55
2018-05-29T09:28:42.008Z,44.35
2018-05-29T09:29:07.504Z,43.67
2018-05-29T09:29:32.976Z,43.87
2018-05-29T09:29:58.497Z,43.77
2018-05-29T09:30:23.921Z,43.57
2018-05-29T09:30:49.383Z,43.87
2018-05-29T09:31:15.048Z,43.79
2018-05-29T09:31:40.571Z,43.1
2018-05-29T09:32:05.911Z,42.71
2018-05-29T09:32:31.424Z,42.79
2018-05-29T09:32:56.880Z,42.89
2018-05-29T09:33:22.397Z,42.6
2018-05-29T09:33:47.997Z,42.5
2018-05-29T09:34:13.536Z,41.72
2018-05-29T09:34:39.012Z,41.52
2018-05-29T09:35:04.620Z,41.52
2018-05-29T09:35:30.073Z,41.33
2018-05-29T09:35:55.603Z,41.03
2018-05-29T09:36:21.138Z,41.42
2018-05-29T09:36:46.645Z,42.01
2018-05-29T09:37:12.099Z,42.79
2018-05-29T09:37:37.608Z,42.5
2018-05-29T09:38:03.078Z,42.5
2018-05-29T09:38:28.618Z,42.3
2018-05-29T09:38:54.126Z,42.6
2018-05-29T09:39:19.661Z,42.11
2018-05-29T09:39:45.190Z,42.69
2018-05-29T09:40:10.626Z,42.3
2018-05-29T09:40:36.100Z,42.6
2018-05-29T09:41:01.670Z,42.52
2018-05-29T09:41:27.292Z,42.32
2018-05-29T09:41:52.739Z,42.42
2018-05-29T09:42:18.277Z,41.93
2018-05-29T09:42:43.747Z,41.35
2018-05-29T09:43:09.216Z,40.66
2018-05-29T09:43:34.692Z,40.66
2018-05-29T09:44:00.259Z,40.74